Time;durP1;ratioP1;P1;durP2;ratioP2;P2;SDS_P1;SDS_P2;PMS_P1;PMS_P2;Temp;Humidity;BMP_temperature;BMP_pressure;BME280_temperature;BME280_humidity;BME280_pressure;Samples;Min_cycle;Max_cycle;Signal;HPM_P1;HPM_P2
2022/11/14 00:02:15;;;;;;;16.58;11.63;;;7.40;89.70;;;;;;4998538;28;20037;-58
2022/11/14 00:04:44;;;;;;;16.52;11.70;;;7.50;89.70;;;;;;5000404;28;20042;-62
2022/11/14 00:07:10;;;;;;;16.25;11.95;;;7.50;89.80;;;;;;5001696;28;20034;-61
2022/11/14 00:09:37;;;;;;;15.40;11.45;;;7.50;90.30;;;;;;4998520;28;20052;-63
2022/11/14 00:12:04;;;;;;;16.23;11.68;;;7.50;89.90;;;;;;5001129;28;20124;-60
2022/11/14 00:14:29;;;;;;;17.35;12.20;;;7.50;89.80;;;;;;4998299;28;20417;-61
2022/11/14 00:16:55;;;;;;;17.60;12.45;;;7.50;89.80;;;;;;4997053;28;20037;-60
2022/11/14 00:19:21;;;;;;;16.90;12.20;;;7.60;89.80;;;;;;5003602;28;20077;-60
2022/11/14 00:21:46;;;;;;;16.60;11.82;;;7.60;89.80;;;;;;4999673;28;20084;-61
2022/11/14 00:24:12;;;;;;;15.07;11.30;;;7.60;89.70;;;;;;4996479;28;20046;-61
2022/11/14 00:26:37;;;;;;;15.82;11.52;;;7.60;89.70;;;;;;4997706;28;20042;-62
2022/11/14 00:29:03;;;;;;;15.20;11.27;;;7.60;89.80;;;;;;4998863;28;20041;-62
2022/11/14 00:31:29;;;;;;;15.93;11.60;;;7.60;89.80;;;;;;4997569;28;20034;-60
2022/11/14 00:33:54;;;;;;;15.45;11.68;;;7.70;89.80;;;;;;4997232;28;20114;-61
2022/11/14 00:36:20;;;;;;;17.17;12.35;;;7.70;89.70;;;;;;5001150;28;20038;-61
2022/11/14 00:38:45;;;;;;;16.02;11.50;;;7.70;89.60;;;;;;4998771;28;20481;-61
2022/11/14 00:41:11;;;;;;;15.63;11.55;;;7.70;89.40;;;;;;4998471;28;20092;-62
2022/11/14 00:43:36;;;;;;;15.82;11.02;;;7.70;89.40;;;;;;4999124;28;20036;-62
2022/11/14 00:46:02;;;;;;;16.58;11.13;;;7.70;89.40;;;;;;4998159;28;20135;-62
2022/11/14 00:48:28;;;;;;;15.93;11.43;;;7.70;89.30;;;;;;4997535;28;20030;-61
2022/11/14 00:50:53;;;;;;;16.42;11.63;;;7.80;89.40;;;;;;5000532;28;20147;-62
2022/11/14 00:53:19;;;;;;;16.90;11.40;;;7.80;89.30;;;;;;5000604;28;20478;-60
2022/11/14 00:55:45;;;;;;;15.38;10.80;;;7.70;89.20;;;;;;5003200;28;20565;-60
2022/11/14 00:58:10;;;;;;;15.77;11.77;;;7.80;89.20;;;;;;5005097;28;20036;-59
2022/11/14 01:00:37;;;;;;;15.15;11.38;;;7.80;89.20;;;;;;5004668;28;20456;-62
2022/11/14 01:03:02;;;;;;;15.77;11.82;;;7.70;89.00;;;;;;5002229;28;20030;-61
2022/11/14 01:05:28;;;;;;;15.40;11.23;;;7.70;89.00;;;;;;5001619;28;20417;-61
2022/11/14 01:07:54;;;;;;;16.63;11.75;;;7.70;89.10;;;;;;4999771;28;20061;-61
2022/11/14 01:10:20;;;;;;;15.63;11.40;;;7.70;89.20;;;;;;5001434;28;20120;-60
2022/11/14 01:12:46;;;;;;;15.35;10.70;;;7.70;89.30;;;;;;4998108;28;20509;-57
2022/11/14 01:15:11;;;;;;;14.40;10.77;;;7.70;89.40;;;;;;4999548;28;20034;-61
2022/11/14 01:17:37;;;;;;;15.70;11.13;;;7.70;89.50;;;;;;5001446;28;20045;-60
2022/11/14 01:20:03;;;;;;;16.92;11.27;;;7.70;89.50;;;;;;5000203;28;20073;-60
2022/11/14 01:22:29;;;;;;;18.05;11.57;;;7.70;89.50;;;;;;4995894;28;20080;-56
2022/11/14 01:24:57;;;;;;;16.67;11.65;;;7.70;89.40;;;;;;4999058;28;20038;-61
2022/11/14 01:27:23;;;;;;;17.52;12.15;;;7.80;89.40;;;;;;4996654;28;20047;-62
2022/11/14 01:29:49;;;;;;;17.88;12.05;;;7.80;89.30;;;;;;4999234;28;20054;-58
2022/11/14 01:32:14;;;;;;;16.25;11.65;;;7.80;89.50;;;;;;4998501;28;20057;-61
2022/11/14 01:34:40;;;;;;;17.10;12.15;;;7.80;89.40;;;;;;4998593;28;20034;-61
2022/11/14 01:37:05;;;;;;;16.77;11.70;;;7.80;89.50;;;;;;4997454;28;20052;-61
2022/11/14 01:39:31;;;;;;;17.85;12.02;;;7.80;89.50;;;;;;4999545;28;20385;-60
2022/11/14 01:41:57;;;;;;;16.92;12.10;;;7.80;89.40;;;;;;4997434;28;20038;-60
2022/11/14 01:44:46;;;;;;;15.77;11.60;;;7.80;89.50;;;;;;5002135;28;20313;-61
2022/11/14 01:47:15;;;;;;;15.45;11.10;;;7.80;89.90;;;;;;4996596;28;20046;-60
2022/11/14 01:49:44;;;;;;;16.70;11.75;;;7.70;89.30;;;;;;4998510;28;20042;-62
2022/11/14 01:52:18;;;;;;;15.65;11.07;;;7.70;89.50;;;;;;5000139;28;20266;-60
2022/11/14 01:54:56;;;;;;;15.25;11.10;;;7.70;89.60;;;;;;5000517;28;20041;-62
2022/11/14 01:57:27;;;;;;;16.42;10.88;;;7.60;89.70;;;;;;4999235;28;20490;-62
2022/11/14 01:59:55;;;;;;;16.65;10.55;;;7.60;89.70;;;;;;5002510;28;20060;-62
2022/11/14 02:02:24;;;;;;;17.52;11.95;;;7.60;89.80;;;;;;4996182;28;20061;-60
2022/11/14 02:04:57;;;;;;;21.90;12.10;;;7.60;89.90;;;;;;5001000;28;20128;-61
2022/11/14 02:07:26;;;;;;;16.98;11.50;;;7.50;89.90;;;;;;4994773;28;20041;-62
2022/11/14 02:09:52;;;;;;;17.38;12.05;;;7.60;90.00;;;;;;5001841;28;20154;-60
2022/11/14 02:12:19;;;;;;;19.77;11.85;;;7.50;90.00;;;;;;4990858;28;20033;-61
2022/11/14 02:14:48;;;;;;;16.27;11.77;;;7.50;90.10;;;;;;5002396;28;20133;-61
2022/11/14 02:17:15;;;;;;;16.95;11.73;;;7.60;90.20;;;;;;5002241;28;20128;-60
2022/11/14 02:19:44;;;;;;;16.35;11.15;;;7.60;90.20;;;;;;5006578;28;20111;-61
2022/11/14 02:22:09;;;;;;;16.15;11.77;;;7.60;90.20;;;;;;4997708;28;20107;-60
2022/11/14 02:24:35;;;;;;;15.77;11.35;;;7.50;90.20;;;;;;5003360;28;20710;-62
2022/11/14 02:27:03;;;;;;;15.88;11.00;;;7.60;90.20;;;;;;5004172;28;21397;-62
2022/11/14 02:29:31;;;;;;;16.08;10.93;;;7.60;90.20;;;;;;5002610;28;20038;-61
2022/11/14 02:31:56;;;;;;;14.75;10.68;;;7.60;90.20;;;;;;5000791;28;20037;-60
2022/11/14 02:34:22;;;;;;;14.93;10.20;;;7.60;90.10;;;;;;5004838;28;20030;-59
2022/11/14 02:36:47;;;;;;;14.95;10.20;;;7.60;90.00;;;;;;5001646;28;20358;-59
2022/11/14 02:39:13;;;;;;;14.38;10.52;;;7.50;90.00;;;;;;4999951;28;21917;-60
2022/11/14 02:41:39;;;;;;;15.90;10.85;;;7.50;90.10;;;;;;5002329;28;20030;-60
2022/11/14 02:44:04;;;;;;;16.48;11.27;;;7.50;90.20;;;;;;5003853;28;20034;-62
2022/11/14 02:46:30;;;;;;;17.67;11.00;;;7.50;90.30;;;;;;5000295;28;20206;-60
2022/11/14 02:48:55;;;;;;;16.83;11.40;;;7.50;90.30;;;;;;5005020;28;20046;-58
2022/11/14 02:51:21;;;;;;;22.33;11.68;;;7.50;90.40;;;;;;5001102;28;20579;-60
2022/11/14 02:53:46;;;;;;;16.42;11.05;;;7.50;90.40;;;;;;5001755;28;20038;-62
2022/11/14 02:56:12;;;;;;;19.15;12.25;;;7.50;90.40;;;;;;5000432;28;20128;-61
2022/11/14 02:58:37;;;;;;;16.95;11.13;;;7.50;90.40;;;;;;4996578;28;20046;-61
2022/11/14 03:01:03;;;;;;;19.55;11.88;;;7.60;90.40;;;;;;5005021;28;20034;-61
2022/11/14 03:03:28;;;;;;;17.40;11.70;;;7.60;90.40;;;;;;4999400;28;20448;-60
2022/11/14 03:06:01;;;;;;;16.75;11.25;;;7.60;90.40;;;;;;4999824;28;20127;-61
2022/11/14 03:08:27;;;;;;;16.65;11.63;;;7.60;90.40;;;;;;5001001;28;20123;-61
2022/11/14 03:10:53;;;;;;;17.63;11.05;;;7.60;90.40;;;;;;4999595;28;20113;-60
2022/11/14 03:13:18;;;;;;;18.30;12.00;;;7.60;90.50;;;;;;5009198;28;20101;-62
2022/11/14 03:15:44;;;;;;;18.27;12.98;;;7.60;90.50;;;;;;5001972;28;20058;-61
2022/11/14 03:18:09;;;;;;;17.92;12.18;;;7.60;90.60;;;;;;5002114;28;20521;-59
2022/11/14 03:20:35;;;;;;;17.95;11.98;;;7.70;90.60;;;;;;5000311;28;20279;-62
2022/11/14 03:23:01;;;;;;;21.10;12.90;;;7.70;90.60;;;;;;5008153;28;20044;-61
2022/11/14 03:25:26;;;;;;;19.70;13.23;;;7.70;90.60;;;;;;5007519;28;20042;-61
2022/11/14 03:27:52;;;;;;;17.88;12.45;;;7.70;90.50;;;;;;5007085;28;20118;-60
2022/11/14 03:30:17;;;;;;;17.80;12.57;;;7.80;90.60;;;;;;5005461;28;20034;-59
2022/11/14 03:32:43;;;;;;;18.98;12.88;;;7.80;90.50;;;;;;5004982;28;20049;-61
2022/11/14 03:35:09;;;;;;;19.85;13.25;;;7.80;90.50;;;;;;5003488;28;20165;-59
2022/11/14 03:37:35;;;;;;;20.17;13.80;;;7.80;90.50;;;;;;5000382;28;20029;-60
2022/11/14 03:40:01;;;;;;;18.48;13.15;;;7.80;90.40;;;;;;5001062;28;20238;-62
2022/11/14 03:42:26;;;;;;;21.48;13.13;;;7.90;90.40;;;;;;5001049;28;20038;-61
2022/11/14 03:44:52;;;;;;;20.25;12.48;;;7.90;90.40;;;;;;4996853;28;20052;-61
2022/11/14 03:47:17;;;;;;;20.95;13.70;;;7.90;90.40;;;;;;5001664;28;20034;-62
2022/11/14 03:49:43;;;;;;;21.52;13.98;;;7.90;90.40;;;;;;5004728;28;20049;-61
2022/11/14 03:52:10;;;;;;;19.75;13.15;;;7.80;90.40;;;;;;4999280;28;20030;-60
2022/11/14 03:54:36;;;;;;;22.60;14.18;;;7.80;90.40;;;;;;4994718;28;20045;-59
2022/11/14 03:57:02;;;;;;;20.65;13.88;;;7.90;90.50;;;;;;4999598;28;20041;-61
2022/11/14 03:59:28;;;;;;;21.83;13.68;;;7.90;90.60;;;;;;5003409;28;20536;-62
2022/11/14 04:01:53;;;;;;;18.92;13.07;;;7.90;90.60;;;;;;4997110;28;20129;-61
2022/11/14 04:04:19;;;;;;;20.35;13.63;;;7.90;90.60;;;;;;4998963;28;20081;-60
2022/11/14 04:06:44;;;;;;;21.08;13.77;;;7.90;90.60;;;;;;4997453;28;20261;-61
2022/11/14 04:09:10;;;;;;;19.00;13.27;;;7.90;90.60;;;;;;5000054;28;20096;-60
2022/11/14 04:11:36;;;;;;;21.52;14.13;;;7.90;90.60;;;;;;4997357;28;20037;-62
2022/11/14 04:14:02;;;;;;;21.15;13.90;;;8.00;90.60;;;;;;5000113;28;20053;-61
2022/11/14 04:16:28;;;;;;;18.48;12.57;;;7.90;90.60;;;;;;4999581;28;20040;-60
2022/11/14 04:18:53;;;;;;;25.75;18.58;;;8.00;90.60;;;;;;5001402;28;20092;-59
2022/11/14 04:21:19;;;;;;;19.65;13.88;;;8.00;90.50;;;;;;4997956;28;20462;-58
2022/11/14 04:23:44;;;;;;;23.70;16.35;;;8.00;90.50;;;;;;5002180;28;20096;-61
2022/11/14 04:26:10;;;;;;;25.45;17.27;;;8.00;90.50;;;;;;4999039;28;20042;-60
2022/11/14 04:28:35;;;;;;;37.55;24.95;;;8.00;90.50;;;;;;4998822;28;20054;-60
2022/11/14 04:31:01;;;;;;;29.23;18.48;;;8.00;90.50;;;;;;4997533;28;20038;-61
2022/11/14 04:33:27;;;;;;;24.98;16.95;;;8.00;90.50;;;;;;4999394;28;20042;-62
2022/11/14 04:35:53;;;;;;;23.85;15.32;;;8.00;90.50;;;;;;5000534;28;20401;-60
2022/11/14 04:38:18;;;;;;;21.73;15.45;;;8.10;90.50;;;;;;4997151;28;20532;-61
2022/11/14 04:40:49;;;;;;;21.30;14.27;;;8.00;90.50;;;;;;5002542;28;20037;-60
2022/11/14 04:43:14;;;;;;;20.98;14.90;;;8.10;90.50;;;;;;4998415;28;20030;-61
2022/11/14 04:45:40;;;;;;;21.02;14.85;;;8.10;90.40;;;;;;4999082;28;20057;-61
2022/11/14 04:48:05;;;;;;;24.45;14.35;;;8.10;90.40;;;;;;4998629;28;22312;-60
2022/11/14 04:50:31;;;;;;;21.55;14.15;;;8.10;90.40;;;;;;4997195;28;20034;-60
2022/11/14 04:52:56;;;;;;;24.10;15.20;;;8.10;90.40;;;;;;4995644;28;20486;-61
2022/11/14 04:55:22;;;;;;;23.42;15.10;;;8.10;90.40;;;;;;5000962;28;20045;-62
2022/11/14 04:57:53;;;;;;;20.58;14.18;;;8.20;90.40;;;;;;4999433;28;20037;-60
2022/11/14 05:00:19;;;;;;;24.10;14.77;;;8.20;90.40;;;;;;4999781;28;20033;-59
2022/11/14 05:02:44;;;;;;;21.65;13.63;;;8.20;90.30;;;;;;4996101;28;20052;-61
2022/11/14 05:05:10;;;;;;;21.90;15.45;;;8.20;90.30;;;;;;4997935;28;20045;-60
2022/11/14 05:07:36;;;;;;;20.30;14.30;;;8.20;90.20;;;;;;4999429;28;20034;-59
2022/11/14 05:10:01;;;;;;;20.45;13.65;;;8.30;90.20;;;;;;5001620;28;20069;-60
2022/11/14 05:12:27;;;;;;;21.52;13.93;;;8.30;90.10;;;;;;5002820;28;20045;-59
2022/11/14 05:14:52;;;;;;;19.75;14.00;;;8.20;90.10;;;;;;5003514;28;20196;-60
2022/11/14 05:17:18;;;;;;;18.52;13.00;;;8.20;90.10;;;;;;5001756;28;20073;-59
2022/11/14 05:19:43;;;;;;;21.80;13.70;;;8.20;90.10;;;;;;4999146;28;20045;-59
2022/11/14 05:22:09;;;;;;;20.25;13.07;;;8.20;90.20;;;;;;4997023;28;20046;-58
2022/11/14 05:24:34;;;;;;;21.40;13.30;;;8.20;90.20;;;;;;4997690;28;20038;-60
2022/11/14 05:27:00;;;;;;;20.63;13.55;;;8.30;90.30;;;;;;4995940;28;20120;-60
2022/11/14 05:29:25;;;;;;;19.17;13.70;;;8.20;90.30;;;;;;4998340;28;20133;-62
2022/11/14 05:31:51;;;;;;;21.75;14.73;;;8.20;90.30;;;;;;4995860;28;20049;-61
2022/11/14 05:34:17;;;;;;;21.42;14.80;;;8.30;90.30;;;;;;4997049;28;20042;-62
2022/11/14 05:36:43;;;;;;;22.40;14.30;;;8.30;90.20;;;;;;4985655;28;20045;-62
2022/11/14 05:39:08;;;;;;;23.20;14.25;;;8.30;90.20;;;;;;4983055;28;20048;-62
2022/11/14 05:41:34;;;;;;;20.20;13.05;;;8.30;90.20;;;;;;4992775;28;20139;-62
2022/11/14 05:43:59;;;;;;;19.77;13.57;;;8.30;90.20;;;;;;4992711;28;20133;-62
2022/11/14 05:46:25;;;;;;;20.20;13.70;;;8.40;90.20;;;;;;4995635;28;20046;-62
2022/11/14 05:48:50;;;;;;;20.00;13.45;;;8.30;90.20;;;;;;4984660;28;20294;-62
2022/11/14 05:51:16;;;;;;;21.50;13.30;;;8.40;90.10;;;;;;4999507;28;20046;-61
2022/11/14 05:53:41;;;;;;;21.75;14.27;;;8.40;90.10;;;;;;4999006;28;20076;-60
2022/11/14 05:56:10;;;;;;;25.80;14.57;;;8.40;90.10;;;;;;4998665;28;20042;-60
2022/11/14 05:58:36;;;;;;;22.73;13.93;;;8.40;90.10;;;;;;4999921;28;20049;-61
2022/11/14 06:01:11;;;;;;;23.65;14.75;;;8.40;90.10;;;;;;5000415;28;20038;-60
2022/11/14 06:03:38;;;;;;;;;;;8.40;90.10;;;;;;5001325;28;20117;-62
2022/11/14 06:06:05;;;;;;;19.75;13.63;;;8.50;90.20;;;;;;5000849;28;20429;-62
2022/11/14 06:08:32;;;;;;;23.63;15.50;;;8.40;90.00;;;;;;4999565;28;20108;-61
2022/11/14 06:11:16;;;;;;;22.05;14.95;;;8.40;90.00;;;;;;4991582;28;20445;-61
2022/11/14 06:13:42;;;;;;;22.45;14.70;;;8.40;90.10;;;;;;4993887;28;20034;-62
2022/11/14 06:16:14;;;;;;;21.35;14.48;;;8.40;90.00;;;;;;4997552;28;20033;-61
2022/11/14 06:18:39;;;;;;;25.45;14.80;;;8.40;90.10;;;;;;4998540;28;20114;-62
2022/11/14 06:21:09;;;;;;;28.40;15.80;;;8.40;90.00;;;;;;5001415;28;20029;-63
2022/11/14 06:23:35;;;;;;;27.45;15.43;;;8.40;90.00;;;;;;4999199;28;20039;-62
2022/11/14 06:26:03;;;;;;;25.92;15.15;;;8.40;90.00;;;;;;4998772;28;20037;-62
2022/11/14 06:28:29;;;;;;;27.90;15.32;;;8.30;90.00;;;;;;4999920;28;20034;-62
2022/11/14 06:30:59;;;;;;;30.75;16.63;;;8.30;90.10;;;;;;4998977;28;20030;-62
2022/11/14 06:33:26;;;;;;;23.52;15.43;;;8.40;90.20;;;;;;4997348;28;20452;-61
2022/11/14 06:35:59;;;;;;;28.45;17.02;;;8.30;90.20;;;;;;4997241;28;20176;-62
2022/11/14 06:38:25;;;;;;;26.90;16.02;;;8.30;90.20;;;;;;4998716;28;20045;-62
2022/11/14 06:40:51;;;;;;;29.55;16.08;;;8.40;90.30;;;;;;4998478;28;20464;-61
2022/11/14 06:43:17;;;;;;;28.13;15.73;;;8.30;90.30;;;;;;4999105;28;20038;-62
2022/11/14 06:45:42;;;;;;;27.50;16.10;;;8.40;90.30;;;;;;4997301;28;20508;-61
2022/11/14 06:48:08;;;;;;;28.67;16.02;;;8.40;90.30;;;;;;4998116;28;20127;-62
2022/11/14 06:50:33;;;;;;;30.15;17.38;;;8.40;90.30;;;;;;4997033;28;20033;-61
2022/11/14 06:52:59;;;;;;;28.98;16.25;;;8.40;90.20;;;;;;4998270;28;20160;-61
2022/11/14 06:55:25;;;;;;;28.40;15.77;;;8.50;90.30;;;;;;5001214;28;20116;-60
2022/11/14 06:57:54;;;;;;;25.10;15.63;;;8.50;90.20;;;;;;4998620;28;20073;-62
2022/11/14 07:00:21;;;;;;;26.02;14.48;;;8.60;90.20;;;;;;4998935;28;20104;-60
2022/11/14 07:02:47;;;;;;;23.13;14.50;;;8.60;90.20;;;;;;5002121;28;20044;-62
2022/11/14 07:05:13;;;;;;;25.33;15.02;;;8.60;90.20;;;;;;5003382;28;20125;-61
2022/11/14 07:07:39;;;;;;;23.90;14.25;;;8.60;90.20;;;;;;5000891;28;20042;-61
2022/11/14 07:10:05;;;;;;;22.13;14.77;;;8.70;90.20;;;;;;5003385;28;20038;-62
2022/11/14 07:12:31;;;;;;;23.67;14.50;;;8.70;90.10;;;;;;4995912;28;20038;-62
2022/11/14 07:14:57;;;;;;;27.80;15.00;;;8.70;90.10;;;;;;5001348;28;20124;-61
2022/11/14 07:17:23;;;;;;;26.77;15.88;;;8.70;90.00;;;;;;5003201;28;20567;-61
2022/11/14 07:19:48;;;;;;;25.50;14.75;;;8.70;90.00;;;;;;5002401;28;20042;-60
2022/11/14 07:22:14;;;;;;;26.50;15.75;;;8.80;90.00;;;;;;5001051;28;20034;-63
2022/11/14 07:24:40;;;;;;;27.77;15.98;;;8.80;90.00;;;;;;4999743;28;20045;-61
2022/11/14 07:27:07;;;;;;;25.52;15.65;;;8.80;90.00;;;;;;5000348;28;20103;-61
2022/11/14 07:29:33;;;;;;;28.25;16.17;;;8.80;90.00;;;;;;5000917;28;20065;-61
2022/11/14 07:31:59;;;;;;;29.48;16.00;;;8.80;90.00;;;;;;5001014;28;20034;-62
2022/11/14 07:34:24;;;;;;;36.53;16.08;;;8.90;90.00;;;;;;5002764;28;20041;-62
2022/11/14 07:36:50;;;;;;;24.83;14.60;;;8.80;89.90;;;;;;5001946;28;20034;-63
2022/11/14 07:39:16;;;;;;;29.30;16.88;;;8.80;89.80;;;;;;5000990;28;20098;-62
2022/11/14 07:41:41;;;;;;;36.70;18.30;;;8.90;89.80;;;;;;4999849;28;20038;-62
2022/11/14 07:44:07;;;;;;;37.88;17.73;;;8.90;89.80;;;;;;4999361;28;20065;-63
2022/11/14 07:46:33;;;;;;;33.28;16.92;;;8.90;89.90;;;;;;4997773;28;20049;-62
2022/11/14 07:48:58;;;;;;;30.65;16.95;;;8.90;89.90;;;;;;4998865;28;20033;-61
2022/11/14 07:51:24;;;;;;;31.23;18.38;;;8.90;89.80;;;;;;5001914;28;20068;-61
2022/11/14 07:53:52;;;;;;;33.13;17.08;;;8.90;89.70;;;;;;5001128;28;20116;-63
2022/11/14 07:56:19;;;;;;;29.20;17.05;;;8.80;89.60;;;;;;5001323;28;20069;-63
2022/11/14 07:58:44;;;;;;;27.27;16.65;;;8.80;89.80;;;;;;4999072;28;20046;-63
2022/11/14 08:01:12;;;;;;;28.48;15.73;;;8.80;89.90;;;;;;5001005;28;20034;-63
2022/11/14 08:03:38;;;;;;;28.63;16.30;;;8.80;90.00;;;;;;5001584;28;20045;-62
2022/11/14 08:06:06;;;;;;;25.80;15.40;;;8.80;90.00;;;;;;5000667;28;20034;-62
2022/11/14 08:08:32;;;;;;;25.90;15.50;;;8.70;90.10;;;;;;5002235;28;20030;-62
2022/11/14 08:10:59;;;;;;;27.77;15.98;;;8.70;90.20;;;;;;4999441;28;20510;-62
2022/11/14 08:13:25;;;;;;;27.90;16.45;;;8.70;90.30;;;;;;4999145;28;20065;-63
2022/11/14 08:15:51;;;;;;;24.95;15.35;;;8.80;90.40;;;;;;5000519;28;20136;-62
2022/11/14 08:18:16;;;;;;;27.15;15.70;;;8.80;90.40;;;;;;5000777;28;20045;-62
2022/11/14 08:20:42;;;;;;;26.30;16.15;;;8.80;90.40;;;;;;5000931;28;20720;-63
2022/11/14 08:23:09;;;;;;;28.10;15.32;;;8.90;90.40;;;;;;5000604;28;20034;-62
2022/11/14 08:25:35;;;;;;;26.77;14.85;;;8.90;90.40;;;;;;4994862;28;20490;-63
2022/11/14 08:28:01;;;;;;;25.98;15.95;;;8.90;90.40;;;;;;4997796;28;20038;-63
2022/11/14 08:30:26;;;;;;;23.25;15.05;;;9.00;90.40;;;;;;4997954;28;20042;-63
2022/11/14 08:32:52;;;;;;;25.92;15.73;;;9.00;90.30;;;;;;4998445;28;20125;-63
2022/11/14 08:35:18;;;;;;;25.05;15.65;;;9.00;90.30;;;;;;4998844;28;20512;-60
2022/11/14 08:37:43;;;;;;;23.67;15.25;;;9.10;90.30;;;;;;4997982;28;20042;-63
2022/11/14 08:40:10;;;;;;;23.65;15.18;;;9.10;90.30;;;;;;4997153;28;20044;-62
2022/11/14 08:42:35;;;;;;;21.27;14.90;;;9.10;90.30;;;;;;4997895;28;20025;-62
2022/11/14 08:45:01;;;;;;;23.25;14.00;;;9.10;90.40;;;;;;4997482;28;20029;-62
2022/11/14 08:47:26;;;;;;;20.92;14.27;;;9.10;90.40;;;;;;4998051;28;20071;-63
2022/11/14 08:49:52;;;;;;;22.45;14.15;;;9.20;90.40;;;;;;4996198;28;20325;-62
2022/11/14 08:52:18;;;;;;;20.48;14.45;;;9.30;90.30;;;;;;5000834;28;20478;-63
2022/11/14 08:54:43;;;;;;;25.77;15.18;;;9.30;90.30;;;;;;4999462;28;20417;-63
2022/11/14 08:57:10;;;;;;;21.75;14.10;;;9.30;90.20;;;;;;5000531;28;20069;-61
2022/11/14 08:59:36;;;;;;;20.50;14.23;;;9.40;90.20;;;;;;5002506;28;20560;-62
2022/11/14 09:02:02;;;;;;;20.40;13.68;;;9.40;90.20;;;;;;4991424;28;20037;-62
2022/11/14 09:04:27;;;;;;;22.27;13.68;;;9.50;90.10;;;;;;4998738;28;20140;-63
2022/11/14 09:06:53;;;;;;;19.88;13.00;;;9.50;90.10;;;;;;4992610;28;20041;-62
2022/11/14 09:09:18;;;;;;;22.88;13.63;;;9.50;90.00;;;;;;4999212;28;20041;-62
2022/11/14 09:11:44;;;;;;;19.77;13.25;;;9.60;90.10;;;;;;5002439;28;20119;-62
2022/11/14 09:14:09;;;;;;;23.25;15.00;;;9.60;90.10;;;;;;5000261;28;20037;-62
2022/11/14 09:16:35;;;;;;;25.20;14.65;;;9.70;90.10;;;;;;4999307;28;20066;-60
2022/11/14 09:19:00;;;;;;;20.45;12.70;;;9.70;90.10;;;;;;5002375;28;20037;-62
2022/11/14 09:21:26;;;;;;;22.52;13.52;;;9.70;90.10;;;;;;4998928;28;20041;-62
2022/11/14 09:23:52;;;;;;;24.23;13.57;;;9.80;90.10;;;;;;4999886;28;20033;-64
2022/11/14 09:26:17;;;;;;;24.27;14.45;;;9.80;90.10;;;;;;5001209;28;20026;-62
2022/11/14 09:28:44;;;;;;;27.58;13.65;;;9.80;90.10;;;;;;4999903;28;20042;-62
2022/11/14 09:31:12;;;;;;;21.67;13.65;;;9.90;90.00;;;;;;5002434;28;20041;-63
2022/11/14 09:33:38;;;;;;;22.70;13.40;;;9.90;90.00;;;;;;5001152;28;20038;-63
2022/11/14 09:36:06;;;;;;;21.88;14.57;;;10.00;90.10;;;;;;5002534;28;20112;-64
2022/11/14 09:38:33;;;;;;;20.95;14.55;;;10.00;90.10;;;;;;4995511;28;20030;-63
2022/11/14 09:41:07;;;;;;;15.70;11.52;;;10.00;90.20;;;;;;4995307;28;20038;-64
2022/11/14 09:43:50;;;;;;;18.00;12.75;;;10.00;90.10;;;;;;4997742;28;20041;-64
2022/11/14 09:46:26;;;;;;;17.85;12.10;;;10.10;90.20;;;;;;4997578;28;20033;-65
2022/11/14 09:48:53;;;;;;;17.75;12.25;;;10.10;90.20;;;;;;4996107;28;20410;-64
2022/11/14 09:51:26;;;;;;;17.77;12.48;;;10.10;90.20;;;;;;4995091;28;20505;-63
2022/11/14 09:54:14;;;;;;;15.80;11.43;;;10.10;90.20;;;;;;4996905;28;20041;-65
2022/11/14 09:56:40;;;;;;;17.08;11.65;;;10.20;90.10;;;;;;4997488;28;20033;-65
2022/11/14 09:59:10;;;;;;;17.27;11.20;;;10.20;90.20;;;;;;4993280;28;20088;-65
2022/11/14 10:02:04;;;;;;;21.23;12.20;;;10.20;90.20;;;;;;4996027;28;20033;-65
2022/11/14 10:04:43;;;;;;;19.92;11.63;;;10.20;90.20;;;;;;4997635;28;20498;-64
2022/11/14 10:07:24;;;;;;;16.48;10.75;;;10.30;90.20;;;;;;5000042;28;20030;-65
2022/11/14 10:10:19;;;;;;;18.20;11.38;;;10.30;90.20;;;;;;4997156;28;20038;-65
2022/11/14 10:13:03;;;;;;;16.42;11.38;;;10.30;90.30;;;;;;4926647;28;20103;-64
2022/11/14 10:15:29;;;;;;;19.30;11.65;;;10.40;90.20;;;;;;4997481;28;20102;-64
2022/11/14 10:18:09;;;;;;;17.33;11.13;;;10.40;90.20;;;;;;4999235;28;20052;-64
2022/11/14 10:20:48;;;;;;;20.38;13.18;;;10.40;90.30;;;;;;4998563;28;20407;-64
2022/11/14 10:23:20;;;;;;;21.40;13.18;;;10.40;90.30;;;;;;5000439;28;20129;-64
2022/11/14 10:26:02;;;;;;;15.52;10.75;;;10.40;90.20;;;;;;4998492;28;20037;-64
2022/11/14 10:28:36;;;;;;;19.55;11.50;;;10.50;90.30;;;;;;4997331;28;20088;-63
2022/11/14 10:31:33;;;;;;;17.63;11.55;;;10.50;90.20;;;;;;5000196;28;20030;-64
2022/11/14 10:34:25;;;;;;;14.63;10.77;;;10.50;90.40;;;;;;4997065;28;20048;-64
2022/11/14 10:37:22;;;;;;;18.20;11.30;;;10.50;90.40;;;;;;5003461;28;20030;-65
2022/11/14 10:39:53;;;;;;;15.10;10.40;;;10.60;90.40;;;;;;5004262;28;20108;-65
2022/11/14 10:42:32;;;;;;;16.45;11.57;;;10.60;90.40;;;;;;5004364;28;20037;-65
2022/11/14 10:45:02;;;;;;;14.20;10.07;;;10.60;90.40;;;;;;5003228;28;20588;-64
2022/11/14 10:47:37;;;;;;;16.00;10.50;;;10.60;90.40;;;;;;5004820;28;20034;-64
2022/11/14 10:50:47;;;;;;;13.43;9.23;;;10.60;90.50;;;;;;5003981;28;20482;-64
2022/11/14 10:53:28;;;;;;;13.75;9.43;;;10.60;90.60;;;;;;4986435;28;20050;-65
2022/11/14 10:55:55;;;;;;;12.57;8.70;;;10.60;90.60;;;;;;5003909;28;20034;-65
2022/11/14 10:58:21;;;;;;;11.32;7.57;;;10.60;90.60;;;;;;5003827;28;20037;-64
2022/11/14 11:00:47;;;;;;;9.52;7.10;;;10.60;90.60;;;;;;5001609;28;20125;-64
2022/11/14 11:03:12;;;;;;;7.28;5.57;;;10.70;90.80;;;;;;4999810;28;20132;-64
2022/11/14 11:05:50;;;;;;;6.00;5.20;;;10.70;90.80;;;;;;5002492;28;20053;-64
2022/11/14 11:11:30;;;;;;;7.03;5.05;;;10.80;90.90;;;;;;4998375;28;20064;-64
2022/11/14 11:13:58;;;;;;;6.57;3.83;;;10.80;91.00;;;;;;5003549;28;20038;-64
2022/11/14 11:16:26;;;;;;;6.28;4.22;;;10.80;91.00;;;;;;5000490;28;20176;-64
2022/11/14 11:18:52;;;;;;;7.50;4.30;;;10.90;91.00;;;;;;5002673;28;20037;-62
2022/11/14 11:21:20;;;;;;;4.57;4.03;;;10.90;90.90;;;;;;5003626;28;20755;-64
2022/11/14 11:23:54;;;;;;;4.82;3.80;;;10.90;90.90;;;;;;5003204;28;20053;-64
2022/11/14 11:26:19;;;;;;;4.18;3.60;;;10.90;90.90;;;;;;5004930;28;20038;-62
2022/11/14 11:29:13;;;;;;;4.90;3.10;;;11.00;90.80;;;;;;5000370;28;20351;-64
2022/11/14 11:31:51;;;;;;;3.35;2.92;;;11.00;91.00;;;;;;5002689;28;20414;-63
2022/11/14 11:34:23;;;;;;;3.33;2.95;;;11.00;90.90;;;;;;4999324;28;20100;-63
2022/11/14 11:37:11;;;;;;;3.17;2.85;;;11.00;90.80;;;;;;5001772;28;20030;-63
2022/11/14 11:39:52;;;;;;;3.00;2.45;;;11.10;90.90;;;;;;4991790;28;20042;-63
2022/11/14 11:42:41;;;;;;;2.70;2.40;;;11.20;91.00;;;;;;5002104;28;20117;-63
2022/11/14 11:45:16;;;;;;;2.78;2.42;;;11.20;91.00;;;;;;5003099;28;20042;-63
2022/11/14 11:47:47;;;;;;;4.40;2.58;;;11.20;91.00;;;;;;5004174;28;20470;-64
2022/11/14 11:50:19;;;;;;;2.67;2.33;;;11.30;91.00;;;;;;5002302;28;20133;-63
2022/11/14 11:53:04;;;;;;;3.40;1.90;;;11.40;91.10;;;;;;5000573;28;21074;-64
2022/11/14 11:55:39;;;;;;;4.20;2.65;;;11.50;91.00;;;;;;5002712;28;20065;-64
2022/11/14 11:58:28;;;;;;;2.30;2.10;;;11.50;90.90;;;;;;5000940;28;20095;-63
2022/11/14 12:00:54;;;;;;;2.40;2.08;;;11.60;90.80;;;;;;5000512;28;20151;-63
2022/11/14 12:03:21;;;;;;;4.00;2.10;;;11.70;90.70;;;;;;5001503;28;20138;-63
2022/11/14 12:06:07;;;;;;;2.13;1.95;;;11.80;90.60;;;;;;4996183;28;20176;-63
2022/11/14 12:08:50;;;;;;;2.00;1.80;;;11.80;90.30;;;;;;4999082;28;20041;-63
2022/11/14 12:11:23;;;;;;;2.13;1.52;;;11.90;90.30;;;;;;4997540;28;20113;-64
2022/11/14 12:14:16;;;;;;;2.17;1.63;;;12.00;90.30;;;;;;5000208;28;20049;-62
2022/11/14 12:16:45;;;;;;;3.70;1.40;;;12.00;90.20;;;;;;4998651;28;20101;-62
2022/11/14 12:19:22;;;;;;;1.85;1.60;;;12.10;90.20;;;;;;5001196;28;20115;-63
2022/11/14 12:22:12;;;;;;;1.80;1.55;;;12.10;90.00;;;;;;4998137;28;20505;-64
2022/11/14 12:25:07;;;;;;;2.35;2.13;;;12.10;89.90;;;;;;4998815;28;20038;-63
2022/11/14 12:27:52;;;;;;;3.95;1.40;;;12.20;89.70;;;;;;4999522;28;20034;-63
2022/11/14 12:30:23;;;;;;;1.65;1.27;;;12.30;89.90;;;;;;5000627;28;20037;-63
2022/11/14 12:33:03;;;;;;;1.83;1.20;;;12.30;89.50;;;;;;5000503;28;20041;-61
2022/11/14 12:35:32;;;;;;;2.13;1.50;;;12.30;89.30;;;;;;5001958;28;20037;-63
2022/11/14 12:38:00;;;;;;;2.28;1.20;;;12.30;89.20;;;;;;5000706;28;20041;-62
2022/11/14 12:40:47;;;;;;;1.33;1.20;;;12.40;89.20;;;;;;5001017;28;20045;-63
2022/11/14 12:43:31;;;;;;;2.10;1.98;;;12.40;88.60;;;;;;5001715;28;20048;-63
2022/11/14 12:45:59;;;;;;;1.60;1.50;;;12.40;88.20;;;;;;4998857;28;20057;-64
2022/11/14 12:48:24;;;;;;;1.77;1.67;;;12.50;88.80;;;;;;5000351;28;20041;-63
2022/11/14 12:50:51;;;;;;;1.67;0.90;;;12.50;88.60;;;;;;4994149;28;20030;-61